CRL632 FMEE-FIMP
Flight info
| Callsign | CRL632 |
|---|---|
| Flight time | 0h 30m |
| Altitude | 17000 |
| Route | EPTE2J EPTEK EPTE2F |
| Aircraft | B734/M-SDE2E3FGHIRWXY/LB1 |
Departure
| Time | 2026-04-21 11:22 |
|---|---|
| Airport | Roland Garros Airport (FMEE) |
Arrival
| Time | 2026-04-21 11:52 |
|---|---|
| Airport | Sir Seewoosagur Ramgoolam International Airport (FIMP) |
| Time | Latitude | Longitude | Altitude | Speed | Heading |
|---|---|---|---|---|---|
| 2026-04-21 10:58 | -20.89107 | 55.51295 | 74 ft | 0 kts | 209° |
| 2026-04-21 11:08 | -20.89089 | 55.51306 | 74 ft | 4 kts | 213° |
| 2026-04-21 11:09 | -20.89068 | 55.51323 | 71 ft | 4 kts | 223° |
| 2026-04-21 11:09 | -20.89051 | 55.51344 | 68 ft | 4 kts | 249° |
| 2026-04-21 11:09 | -20.89049 | 55.51365 | 67 ft | 1 kts | 296° |
| 2026-04-21 11:17 | -20.89048 | 55.51364 | 67 ft | 1 kts | 296° |
| 2026-04-21 11:17 | -20.89041 | 55.51348 | 63 ft | 5 kts | 297° |
| 2026-04-21 11:17 | -20.89019 | 55.51302 | 67 ft | 9 kts | 297° |
| 2026-04-21 11:17 | -20.88986 | 55.51233 | 74 ft | 11 kts | 297° |
| 2026-04-21 11:18 | -20.88934 | 55.51183 | 69 ft | 10 kts | 342° |
| 2026-04-21 11:18 | -20.88864 | 55.51159 | 65 ft | 13 kts | 342° |
| 2026-04-21 11:18 | -20.88752 | 55.51110 | 55 ft | 19 kts | 315° |
| 2026-04-21 11:18 | -20.88705 | 55.50986 | 53 ft | 18 kts | 282° |
| 2026-04-21 11:19 | -20.88678 | 55.50856 | 49 ft | 18 kts | 282° |
| 2026-04-21 11:19 | -20.88652 | 55.50730 | 54 ft | 17 kts | 282° |
| 2026-04-21 11:19 | -20.88635 | 55.50644 | 51 ft | 7 kts | 282° |
| 2026-04-21 11:19 | -20.88624 | 55.50593 | 53 ft | 7 kts | 283° |
| 2026-04-21 11:20 | -20.88602 | 55.50547 | 52 ft | 7 kts | 306° |
| 2026-04-21 11:20 | -20.88582 | 55.50518 | 52 ft | 4 kts | 307° |
| 2026-04-21 11:20 | -20.88579 | 55.50489 | 52 ft | 4 kts | 242° |
| 2026-04-21 11:20 | -20.88604 | 55.50490 | 52 ft | 4 kts | 126° |
| 2026-04-21 11:21 | -20.88610 | 55.50521 | 52 ft | 4 kts | 102° |
| 2026-04-21 11:21 | -20.88619 | 55.50565 | 50 ft | 10 kts | 102° |
| 2026-04-21 11:21 | -20.88679 | 55.50864 | 55 ft | 77 kts | 102° |
| 2026-04-21 11:21 | -20.88839 | 55.51648 | 51 ft | 137 kts | 102° |
| 2026-04-21 11:22 | -20.89043 | 55.52682 | 614 ft | 142 kts | 104° |
| 2026-04-21 11:22 | -20.89249 | 55.53793 | 1093 ft | 156 kts | 99° |
| 2026-04-21 11:22 | -20.88975 | 55.54859 | 1920 ft | 159 kts | 58° |
| 2026-04-21 11:22 | -20.88229 | 55.55827 | 2318 ft | 182 kts | 57° |
| 2026-04-21 11:23 | -20.87366 | 55.56947 | 2559 ft | 207 kts | 56° |
| 2026-04-21 11:23 | -20.86399 | 55.58194 | 2757 ft | 227 kts | 54° |
| 2026-04-21 11:23 | -20.85371 | 55.59507 | 3259 ft | 234 kts | 54° |
| 2026-04-21 11:23 | -20.84300 | 55.60875 | 3620 ft | 249 kts | 53° |
| 2026-04-21 11:24 | -20.83156 | 55.62336 | 4186 ft | 258 kts | 54° |
| 2026-04-21 11:24 | -20.81996 | 55.63815 | 5053 ft | 261 kts | 54° |
| 2026-04-21 11:24 | -20.80825 | 55.65310 | 5869 ft | 263 kts | 53° |
| 2026-04-21 11:24 | -20.79640 | 55.66822 | 6596 ft | 267 kts | 53° |
| 2026-04-21 11:25 | -20.78454 | 55.68335 | 7323 ft | 269 kts | 53° |
| 2026-04-21 11:25 | -20.77231 | 55.69898 | 7966 ft | 275 kts | 53° |
| 2026-04-21 11:25 | -20.76013 | 55.71452 | 8735 ft | 275 kts | 53° |
| 2026-04-21 11:25 | -20.74773 | 55.73036 | 9404 ft | 281 kts | 52° |
| 2026-04-21 11:26 | -20.73504 | 55.74658 | 10060 ft | 285 kts | 53° |
| 2026-04-21 11:26 | -20.72206 | 55.76316 | 10467 ft | 300 kts | 53° |
| 2026-04-21 11:26 | -20.70816 | 55.78095 | 10608 ft | 323 kts | 52° |
| 2026-04-21 11:26 | -20.69330 | 55.79992 | 10783 ft | 343 kts | 52° |
| 2026-04-21 11:27 | -20.67762 | 55.81992 | 11044 ft | 356 kts | 52° |
| 2026-04-21 11:27 | -20.66158 | 55.84034 | 11577 ft | 360 kts | 52° |
| 2026-04-21 11:27 | -20.64538 | 55.86098 | 12158 ft | 365 kts | 52° |
| 2026-04-21 11:27 | -20.62900 | 55.88184 | 12755 ft | 368 kts | 52° |
| 2026-04-21 11:28 | -20.61223 | 55.90266 | 13329 ft | 373 kts | 50° |
| 2026-04-21 11:28 | -20.59445 | 55.92313 | 13910 ft | 378 kts | 48° |
| 2026-04-21 11:28 | -20.57649 | 55.94326 | 14403 ft | 382 kts | 48° |
| 2026-04-21 11:28 | -20.55804 | 55.96388 | 14938 ft | 386 kts | 48° |
| 2026-04-21 11:29 | -20.53936 | 55.98488 | 15477 ft | 390 kts | 48° |
| 2026-04-21 11:29 | -20.52051 | 56.00619 | 16011 ft | 395 kts | 49° |
| 2026-04-21 11:29 | -20.50177 | 56.02743 | 16566 ft | 398 kts | 49° |
| 2026-04-21 11:29 | -20.48279 | 56.04899 | 16968 ft | 398 kts | 49° |
| 2026-04-21 11:30 | -20.46361 | 56.07078 | 17023 ft | 409 kts | 49° |
| 2026-04-21 11:30 | -20.44374 | 56.09340 | 17039 ft | 422 kts | 49° |
| 2026-04-21 11:30 | -20.42722 | 56.11920 | 17018 ft | 424 kts | 69° |
| 2026-04-21 11:30 | -20.41950 | 56.14934 | 17022 ft | 422 kts | 86° |
| 2026-04-21 11:31 | -20.41787 | 56.18050 | 17034 ft | 420 kts | 90° |
| 2026-04-21 11:31 | -20.41676 | 56.21113 | 17018 ft | 419 kts | 90° |
| 2026-04-21 11:31 | -20.41565 | 56.24214 | 17013 ft | 418 kts | 90° |
| 2026-04-21 11:31 | -20.41447 | 56.27312 | 17015 ft | 418 kts | 90° |
| 2026-04-21 11:32 | -20.41319 | 56.30408 | 17020 ft | 418 kts | 89° |
| 2026-04-21 11:32 | -20.41183 | 56.33510 | 17021 ft | 419 kts | 89° |
| 2026-04-21 11:32 | -20.41040 | 56.36616 | 17024 ft | 420 kts | 89° |
| 2026-04-21 11:32 | -20.40894 | 56.39742 | 17021 ft | 421 kts | 89° |
| 2026-04-21 11:33 | -20.40745 | 56.42861 | 17024 ft | 421 kts | 89° |
| 2026-04-21 11:33 | -20.40595 | 56.46003 | 17022 ft | 422 kts | 89° |
| 2026-04-21 11:33 | -20.40445 | 56.49117 | 17022 ft | 422 kts | 89° |
| 2026-04-21 11:33 | -20.40294 | 56.52239 | 17021 ft | 422 kts | 89° |
| 2026-04-21 11:34 | -20.40194 | 56.54311 | 17020 ft | 422 kts | 89° |
| 2026-04-21 11:34 | -20.39992 | 56.58464 | 17028 ft | 422 kts | 89° |
| 2026-04-21 11:34 | -20.39889 | 56.60578 | 17023 ft | 422 kts | 89° |
| 2026-04-21 11:34 | -20.39738 | 56.63673 | 17015 ft | 422 kts | 88° |
| 2026-04-21 11:35 | -20.39583 | 56.66816 | 17015 ft | 421 kts | 89° |
| 2026-04-21 11:35 | -20.39430 | 56.69927 | 17015 ft | 421 kts | 89° |
| 2026-04-21 11:35 | -20.39276 | 56.73047 | 17018 ft | 421 kts | 89° |
| 2026-04-21 11:35 | -20.39123 | 56.76145 | 17018 ft | 421 kts | 88° |
| 2026-04-21 11:36 | -20.38967 | 56.79277 | 17019 ft | 421 kts | 89° |
| 2026-04-21 11:36 | -20.38810 | 56.82417 | 17021 ft | 421 kts | 89° |
| 2026-04-21 11:36 | -20.38657 | 56.85494 | 17016 ft | 421 kts | 88° |
| 2026-04-21 11:36 | -20.38499 | 56.88634 | 17017 ft | 422 kts | 88° |
| 2026-04-21 11:37 | -20.38343 | 56.91723 | 17009 ft | 416 kts | 88° |
| 2026-04-21 11:37 | -20.38187 | 56.94768 | 17000 ft | 398 kts | 88° |
| 2026-04-21 11:37 | -20.38040 | 56.97631 | 17001 ft | 380 kts | 88° |
| 2026-04-21 11:37 | -20.37897 | 57.00409 | 16878 ft | 368 kts | 88° |
| 2026-04-21 11:38 | -20.37761 | 57.03081 | 16602 ft | 361 kts | 88° |
| 2026-04-21 11:38 | -20.37625 | 57.05744 | 16196 ft | 358 kts | 88° |
| 2026-04-21 11:38 | -20.37491 | 57.08373 | 15811 ft | 355 kts | 88° |
| 2026-04-21 11:38 | -20.37357 | 57.11001 | 15413 ft | 353 kts | 88° |
| 2026-04-21 11:39 | -20.37222 | 57.13616 | 15012 ft | 351 kts | 88° |
| 2026-04-21 11:39 | -20.37089 | 57.16183 | 14605 ft | 349 kts | 88° |
| 2026-04-21 11:39 | -20.36954 | 57.18785 | 14203 ft | 348 kts | 88° |
| 2026-04-21 11:39 | -20.36821 | 57.21353 | 13773 ft | 347 kts | 87° |
| 2026-04-21 11:40 | -20.36688 | 57.23888 | 13333 ft | 345 kts | 87° |
| 2026-04-21 11:40 | -20.36554 | 57.26453 | 12905 ft | 342 kts | 87° |
| 2026-04-21 11:40 | -20.36421 | 57.28985 | 12491 ft | 340 kts | 87° |
| 2026-04-21 11:40 | -20.36290 | 57.31467 | 12087 ft | 337 kts | 87° |
| 2026-04-21 11:41 | -20.36330 | 57.33955 | 11662 ft | 335 kts | 101° |
| 2026-04-21 11:41 | -20.37108 | 57.36275 | 11286 ft | 332 kts | 115° |
| 2026-04-21 11:41 | -20.38160 | 57.38479 | 10868 ft | 330 kts | 117° |
| 2026-04-21 11:41 | -20.39211 | 57.40596 | 10646 ft | 323 kts | 117° |
| 2026-04-21 11:42 | -20.40248 | 57.42696 | 10497 ft | 314 kts | 116° |
| 2026-04-21 11:42 | -20.41236 | 57.44727 | 10346 ft | 305 kts | 116° |
| 2026-04-21 11:42 | -20.42193 | 57.46716 | 10247 ft | 295 kts | 116° |
| 2026-04-21 11:42 | -20.43117 | 57.48649 | 10114 ft | 287 kts | 116° |
| 2026-04-21 11:43 | -20.44008 | 57.50518 | 9988 ft | 280 kts | 116° |
| 2026-04-21 11:43 | -20.44865 | 57.52315 | 9839 ft | 272 kts | 116° |
| 2026-04-21 11:43 | -20.45746 | 57.54164 | 9379 ft | 278 kts | 115° |
| 2026-04-21 11:43 | -20.46620 | 57.55999 | 9027 ft | 278 kts | 115° |
| 2026-04-21 11:44 | -20.47495 | 57.57835 | 8721 ft | 277 kts | 115° |
| 2026-04-21 11:44 | -20.48367 | 57.59666 | 8426 ft | 276 kts | 115° |
| 2026-04-21 11:44 | -20.49227 | 57.61471 | 8128 ft | 275 kts | 115° |
| 2026-04-21 11:44 | -20.50090 | 57.63287 | 7811 ft | 274 kts | 115° |
| 2026-04-21 11:45 | -20.50954 | 57.65103 | 7522 ft | 272 kts | 115° |
| 2026-04-21 11:45 | -20.51801 | 57.66881 | 7213 ft | 265 kts | 115° |
| 2026-04-21 11:45 | -20.52622 | 57.68609 | 6938 ft | 257 kts | 115° |
| 2026-04-21 11:45 | -20.53424 | 57.70295 | 6664 ft | 250 kts | 115° |
| 2026-04-21 11:46 | -20.54187 | 57.71902 | 6403 ft | 242 kts | 115° |
| 2026-04-21 11:46 | -20.54940 | 57.73487 | 6122 ft | 235 kts | 115° |
| 2026-04-21 11:46 | -20.55672 | 57.75028 | 5868 ft | 227 kts | 115° |
| 2026-04-21 11:46 | -20.56375 | 57.76509 | 5627 ft | 219 kts | 115° |
| 2026-04-21 11:47 | -20.57046 | 57.77922 | 5420 ft | 209 kts | 115° |
| 2026-04-21 11:47 | -20.57689 | 57.79277 | 5227 ft | 200 kts | 115° |
| 2026-04-21 11:47 | -20.58301 | 57.80574 | 5030 ft | 191 kts | 113° |
| 2026-04-21 11:47 | -20.58445 | 57.81917 | 4786 ft | 184 kts | 72° |
| 2026-04-21 11:48 | -20.57601 | 57.82900 | 4614 ft | 183 kts | 31° |
| 2026-04-21 11:48 | -20.56436 | 57.83495 | 4110 ft | 198 kts | 31° |
| 2026-04-21 11:48 | -20.55138 | 57.84164 | 3486 ft | 217 kts | 26° |
| 2026-04-21 11:48 | -20.53674 | 57.84494 | 3318 ft | 213 kts | 4° |
| 2026-04-21 11:49 | -20.52251 | 57.84137 | 3166 ft | 209 kts | 339° |
| 2026-04-21 11:49 | -20.51054 | 57.83284 | 2951 ft | 208 kts | 321° |
| 2026-04-21 11:49 | -20.49999 | 57.82235 | 2705 ft | 206 kts | 317° |
| 2026-04-21 11:49 | -20.49173 | 57.80984 | 2438 ft | 205 kts | 301° |
| 2026-04-21 11:50 | -20.48500 | 57.79689 | 2168 ft | 202 kts | 300° |
| 2026-04-21 11:50 | -20.47859 | 57.78393 | 1925 ft | 192 kts | 299° |
| 2026-04-21 11:50 | -20.47250 | 57.77135 | 1651 ft | 185 kts | 299° |
| 2026-04-21 11:50 | -20.46679 | 57.75951 | 1419 ft | 177 kts | 299° |
| 2026-04-21 11:51 | -20.46123 | 57.74800 | 1197 ft | 174 kts | 299° |
| 2026-04-21 11:51 | -20.45573 | 57.73658 | 979 ft | 172 kts | 297° |
| 2026-04-21 11:51 | -20.45026 | 57.72522 | 742 ft | 173 kts | 297° |
| 2026-04-21 11:51 | -20.44468 | 57.71355 | 508 ft | 180 kts | 298° |
| 2026-04-21 11:52 | -20.43900 | 57.70178 | 239 ft | 179 kts | 298° |
| 2026-04-21 11:52 | -20.43365 | 57.69061 | 155 ft | 157 kts | 298° |
| 2026-04-21 11:52 | -20.42945 | 57.68192 | 181 ft | 102 kts | 297° |
| 2026-04-21 11:52 | -20.42717 | 57.67719 | 186 ft | 43 kts | 297° |
| 2026-04-21 11:53 | -20.42660 | 57.67599 | 189 ft | 9 kts | 297° |
| 2026-04-21 11:53 | -20.42633 | 57.67543 | 194 ft | 9 kts | 297° |
| 2026-04-21 11:53 | -20.42629 | 57.67483 | 193 ft | 10 kts | 234° |
| 2026-04-21 11:53 | -20.42704 | 57.67480 | 187 ft | 12 kts | 164° |
| 2026-04-21 11:54 | -20.42758 | 57.67484 | 191 ft | 1 kts | 202° |
| 2026-04-21 11:54 | -20.42775 | 57.67471 | 189 ft | 5 kts | 216° |
| 2026-04-21 11:54 | -20.42797 | 57.67458 | 190 ft | 5 kts | 192° |
| 2026-04-21 11:54 | -20.42811 | 57.67485 | 188 ft | 6 kts | 82° |
| 2026-04-21 11:55 | -20.42811 | 57.67532 | 182 ft | 7 kts | 97° |
| 2026-04-21 11:55 | -20.42837 | 57.67582 | 190 ft | 9 kts | 133° |
| 2026-04-21 11:55 | -20.42897 | 57.67617 | 183 ft | 11 kts | 153° |
| 2026-04-21 11:55 | -20.42966 | 57.67657 | 186 ft | 12 kts | 141° |
| 2026-04-21 11:56 | -20.43008 | 57.67738 | 184 ft | 13 kts | 117° |
| 2026-04-21 11:56 | -20.43048 | 57.67822 | 185 ft | 12 kts | 116° |
| 2026-04-21 11:56 | -20.43089 | 57.67901 | 185 ft | 12 kts | 121° |
| 2026-04-21 11:56 | -20.43109 | 57.67937 | 189 ft | 3 kts | 120° |
| 2026-04-21 11:57 | -20.43120 | 57.67957 | 187 ft | 3 kts | 120° |
| 2026-04-21 11:57 | -20.43138 | 57.67969 | 187 ft | 3 kts | 174° |
| 2026-04-21 11:57 | -20.43158 | 57.67959 | 195 ft | 3 kts | 217° |
| 2026-04-21 11:57 | -20.43174 | 57.67943 | 185 ft | 3 kts | 221° |
| 2026-04-21 11:58 | -20.43190 | 57.67928 | 184 ft | 3 kts | 223° |
| 2026-04-21 11:58 | -20.43206 | 57.67912 | 183 ft | 3 kts | 225° |
| 2026-04-21 11:58 | -20.43212 | 57.67905 | 191 ft | 0 kts | 225° |